Terminal Aerodrome Forecast
Issued by NWS North Platte, NE

Home | Current Version | Previous Version | Text Only | Print | Product List | Glossary On
Versions: 1 2 3 4 5 6 7 8 9 10 11 12 13 14 15
023
FTUS43 KLBF 280520
TAFLBF
TAF
KLBF 280520Z 2806/2906 VRB04KT P6SM SCT050 BKN200
     FM281500 10006KT P6SM FEW050 BKN250
     FM281800 09008KT P6SM SCT050 BKN150
     FM282000 08010KT P6SM BKN050 BKN150 PROB30 2820/2902 P6SM -TSRA
      SCT030 BKN050CB BKN120=

USA.gov is the U.S. government's official web portal to all federal, state and local government web resources and services.